Time;durP1;ratioP1;P1;durP2;ratioP2;P2;SDS_P1;SDS_P2;PMS_P1;PMS_P2;Temp;Humidity;BMP_temperature;BMP_pressure;BME280_temperature;BME280_humidity;BME280_pressure;Samples;Min_cycle;Max_cycle;Signal;HPM_P1;HPM_P2
2023/03/01 00:00:02;;;;;;;;;;;;;;;5.47;93.70;100504.59;3170438;28;19977;-63
2023/03/01 00:01:34;;;;;;;;;;;;;;;5.48;93.77;100503.69;3169917;28;19928;-63
2023/03/01 00:03:06;;;;;;;;;;;;;;;5.47;93.66;100499.41;3170212;28;20075;-63
2023/03/01 00:04:36;;;;;;;;;;;;;;;5.47;93.67;100501.13;3169562;28;19924;-64
2023/03/01 00:06:08;;;;;;;;;;;;;;;5.46;93.72;100504.59;3170151;28;19944;-63
2023/03/01 00:07:39;;;;;;;;;;;;;;;5.46;93.65;100502.00;3170392;28;19924;-63
2023/03/01 00:09:13;;;;;;;;;;;;;;;5.48;93.80;100508.03;3169925;28;19924;-63
2023/03/01 00:10:44;;;;;;;;;;;;;;;5.47;93.64;100508.88;3170260;28;19930;-63
2023/03/01 00:12:16;;;;;;;;;;;;;;;5.47;93.75;100511.44;3169301;28;19924;-63
2023/03/01 00:13:48;;;;;;;;;;;;;;;5.46;93.69;100510.59;3170139;28;19924;-63
2023/03/01 00:15:20;;;;;;;;;;;;;;;5.45;93.60;100506.31;3169779;28;20258;-63
2023/03/01 00:16:51;;;;;;;;;;;;;;;5.42;93.76;100508.09;3169945;28;20400;-63
2023/03/01 00:18:22;;;;;;;;;;;;;;;5.41;93.71;100503.78;3168767;28;20294;-63
2023/03/01 00:19:54;;;;;;;;;;;;;;;5.42;93.69;100503.78;3169688;28;19934;-64
2023/03/01 00:21:25;;;;;;;;;;;;;;;5.45;93.80;100510.63;3169704;28;19934;-64
2023/03/01 00:22:57;;;;;;;;;;;;;;;5.47;93.64;100506.28;3170258;28;19924;-63
2023/03/01 00:24:30;;;;;;;;;;;;;;;5.48;93.59;100505.44;3170105;28;19931;-64
2023/03/01 00:26:01;;;;;;;;;;;;;;;5.50;93.70;100505.41;3168229;28;20397;-63
2023/03/01 00:27:32;;;;;;;;;;;;;;;5.52;93.54;100504.50;3169899;28;20018;-63
2023/03/01 00:29:04;;;;;;;;;;;;;;;5.53;93.41;100508.81;3169544;28;20401;-64
2023/03/01 00:30:35;;;;;;;;;;;;;;;5.54;93.56;100504.50;3157532;28;19932;-63
2023/03/01 00:32:06;;;;;;;;;;;;;;;5.55;93.40;100509.63;3164681;28;19928;-63
2023/03/01 00:33:37;;;;;;;;;;;;;;;5.56;93.51;100506.19;3164596;28;19931;-63
2023/03/01 00:35:09;;;;;;;;;;;;;;;5.54;93.47;100509.66;3178564;28;20309;-64
2023/03/01 00:36:40;;;;;;;;;;;;;;;5.54;93.53;100507.94;3172081;28;20438;-64
2023/03/01 00:38:11;;;;;;;;;;;;;;;5.54;93.38;100499.34;3169914;28;19924;-64
2023/03/01 00:39:44;;;;;;;;;;;;;;;5.55;93.36;100499.28;3169456;28;19928;-63
2023/03/01 00:41:17;;;;;;;;;;;;;;;5.55;93.29;100499.28;3170302;28;19928;-63
2023/03/01 00:42:48;;;;;;;;;;;;;;;5.55;93.34;100498.44;3169665;28;20408;-63
2023/03/01 00:44:20;;;;;;;;;;;;;;;5.54;93.34;100489.84;3169498;28;20294;-63
2023/03/01 00:45:51;;;;;;;;;;;;;;;5.57;93.11;100492.38;3170110;28;20044;-63
2023/03/01 00:47:22;;;;;;;;;;;;;;;5.58;93.29;100496.66;3170269;28;19927;-63
2023/03/01 00:48:54;;;;;;;;;;;;;;;5.58;93.02;100490.66;3169646;28;19924;-63
2023/03/01 00:50:24;;;;;;;;;;;;;;;5.57;93.29;100481.22;3169308;28;19923;-63
2023/03/01 00:51:56;;;;;;;;;;;;;;;5.58;93.21;100481.16;3169663;28;19949;-63
2023/03/01 00:53:27;;;;;;;;;;;;;;;5.58;93.18;100480.31;3169931;28;19988;-63
2023/03/01 00:55:00;;;;;;;;;;;;;;;5.56;93.23;100476.91;3169679;28;20098;-63
2023/03/01 00:56:31;;;;;;;;;;;;;;;5.56;93.20;100472.59;3170866;28;20396;-63
2023/03/01 00:58:03;;;;;;;;;;;;;;;5.56;93.10;100475.19;3171987;28;19924;-63
2023/03/01 00:59:35;;;;;;;;;;;;;;;5.54;93.06;100470.91;3171878;28;19949;-63
2023/03/01 01:01:16;;;;;;;;;;;;;;;5.54;93.02;100474.34;3172230;28;19970;-64
2023/03/01 01:02:48;;;;;;;;;;;;;;;5.56;93.02;100469.13;3172025;28;19924;-63
2023/03/01 01:04:20;;;;;;;;;;;;;;;5.56;92.94;100471.72;3171831;28;19975;-63
2023/03/01 01:05:50;;;;;;;;;;;;;;;5.57;92.91;100470.88;3172239;28;19993;-63
2023/03/01 01:07:22;;;;;;;;;;;;;;;5.58;93.10;100472.56;3172345;28;20011;-63
2023/03/01 01:08:54;;;;;;;;;;;;;;;5.57;93.09;100468.28;3172260;28;19961;-63
2023/03/01 01:10:27;;;;;;;;;;;;;;;5.57;92.98;100469.13;3172204;28;19928;-63
2023/03/01 01:11:59;;;;;;;;;;;;;;;5.55;92.89;100468.28;3171708;28;19924;-63
2023/03/01 01:13:29;;;;;;;;;;;;;;;5.56;92.96;100469.13;3171955;28;20007;-63
2023/03/01 01:15:01;;;;;;;;;;;;;;;5.56;92.97;100466.56;3172120;28;20389;-63
2023/03/01 01:16:33;;;;;;;;;;;;;;;5.55;93.01;100465.72;3171721;28;19924;-63
2023/03/01 01:18:03;;;;;;;;;;;;;;;5.56;92.98;100464.84;3169767;28;20400;-63
2023/03/01 01:19:35;;;;;;;;;;;;;;;5.58;93.18;100459.66;3171002;28;19935;-63
2023/03/01 01:21:07;;;;;;;;;;;;;;;5.59;92.94;100469.97;3172083;28;20026;-64
2023/03/01 01:22:38;;;;;;;;;;;;;;;5.59;93.03;100451.91;3171215;28;20044;-64
2023/03/01 01:24:09;;;;;;;;;;;;;;;5.61;92.68;100459.59;3171720;28;19927;-64
2023/03/01 01:25:42;;;;;;;;;;;;;;;5.60;92.86;100455.31;3171847;28;20467;-64
2023/03/01 01:27:12;;;;;;;;;;;;;;;5.61;92.68;100463.03;3171504;28;19928;-64
2023/03/01 01:28:44;;;;;;;;;;;;;;;5.62;92.71;100458.72;3172115;28;20065;-64
2023/03/01 01:30:15;;;;;;;;;;;;;;;5.63;92.57;100460.44;3171317;28;19993;-64
2023/03/01 01:31:47;;;;;;;;;;;;;;;5.65;92.54;100456.97;3171895;28;19925;-63
2023/03/01 01:33:18;;;;;;;;;;;;;;;5.66;92.51;100450.06;3171595;28;19935;-64
2023/03/01 01:34:50;;;;;;;;;;;;;;;5.66;92.46;100457.81;3177042;27;19931;-64
2023/03/01 01:36:21;;;;;;;;;;;;;;;5.63;92.53;100445.78;3179036;27;19938;-64
2023/03/01 01:37:52;;;;;;;;;;;;;;;5.65;92.66;100453.53;3171919;28;19931;-64
2023/03/01 01:39:24;;;;;;;;;;;;;;;5.66;92.51;100455.22;3171784;28;20367;-63
2023/03/01 01:40:56;;;;;;;;;;;;;;;5.67;92.33;100452.63;3171564;28;19924;-64
2023/03/01 01:42:28;;;;;;;;;;;;;;;5.65;92.38;100449.22;3171597;28;19924;-64
2023/03/01 01:44:12;;;;;;;;;;;;;;;5.64;92.57;100447.50;3167578;28;19935;-63
2023/03/01 01:45:44;;;;;;;;;;;;;;;5.62;92.40;100453.56;3163915;28;19958;-64
2023/03/01 01:47:18;;;;;;;;;;;;;;;5.61;92.41;100452.69;3171698;28;19924;-63
2023/03/01 01:48:53;;;;;;;;;;;;;;;5.60;92.31;100453.59;3171207;28;19934;-63
2023/03/01 01:50:24;;;;;;;;;;;;;;;5.60;92.54;100451.00;3171305;28;19927;-63
2023/03/01 01:51:59;;;;;;;;;;;;;;;5.59;92.57;100449.31;3170536;28;19928;-63
2023/03/01 01:53:30;;;;;;;;;;;;;;;5.60;92.42;100451.00;3171087;28;19932;-63
2023/03/01 01:55:04;;;;;;;;;;;;;;;5.61;92.37;100444.94;3171414;28;20318;-64
2023/03/01 01:56:37;;;;;;;;;;;;;;;5.62;92.39;100444.09;3170711;28;19927;-64
2023/03/01 01:58:10;;;;;;;;;;;;;;;5.63;92.43;100442.34;3171725;28;19981;-64
2023/03/01 01:59:44;;;;;;;;;;;;;;;5.62;92.25;100441.50;3171128;28;19924;-64
2023/03/01 02:01:15;;;;;;;;;;;;;;;5.61;92.24;100444.09;3171310;28;19927;-63
2023/03/01 02:02:47;;;;;;;;;;;;;;;5.61;92.31;100436.34;3171153;28;19989;-65
2023/03/01 02:04:19;;;;;;;;;;;;;;;5.61;92.46;100441.53;3171212;28;19923;-64
2023/03/01 02:05:53;;;;;;;;;;;;;;;5.60;92.30;100442.41;3171211;28;19927;-64
2023/03/01 02:07:25;;;;;;;;;;;;;;;5.60;92.44;100442.41;3170943;28;20319;-64
2023/03/01 02:08:59;;;;;;;;;;;;;;;5.61;92.43;100436.34;3171074;28;19935;-64
2023/03/01 02:10:33;;;;;;;;;;;;;;;5.62;92.39;100436.34;3171286;28;19968;-64
2023/03/01 02:12:06;;;;;;;;;;;;;;;5.63;92.39;100439.78;3171088;28;20150;-64
2023/03/01 02:13:38;;;;;;;;;;;;;;;5.65;92.45;100440.63;3171082;28;20411;-63
2023/03/01 02:15:09;;;;;;;;;;;;;;;5.65;92.27;100438.03;3171296;28;19951;-64
2023/03/01 02:16:42;;;;;;;;;;;;;;;5.62;92.31;100438.94;3170974;28;19924;-64
2023/03/01 02:18:15;;;;;;;;;;;;;;;5.61;92.48;100434.63;3168300;28;19924;-64
2023/03/01 02:19:56;;;;;;;;;;;;;;;5.61;92.42;100432.03;3171062;28;20341;-64
2023/03/01 02:21:31;;;;;;;;;;;;;;;5.60;92.42;100438.09;3171021;28;19923;-64
2023/03/01 02:23:03;;;;;;;;;;;;;;;5.61;92.42;100429.44;3171013;28;19931;-63
2023/03/01 02:24:38;;;;;;;;;;;;;;;5.62;92.49;100438.03;3170997;28;20430;-63
2023/03/01 02:26:17;;;;;;;;;;;;;;;5.62;92.47;100436.34;3170193;27;20024;-63
2023/03/01 02:27:51;;;;;;;;;;;;;;;5.64;92.45;100429.41;3171273;28;19927;-63
2023/03/01 02:29:25;;;;;;;;;;;;;;;5.65;92.52;100436.31;3171021;27;20345;-64
2023/03/01 02:32:46;;;;;;;;;;;;;;;5.63;92.29;100430.28;3170520;28;19927;-64
2023/03/01 02:34:18;;;;;;;;;;;;;;;5.62;92.51;100435.47;3172551;27;19923;-64
2023/03/01 02:35:49;;;;;;;;;;;;;;;5.62;92.40;100438.94;3181701;27;19931;-63
2023/03/01 02:37:24;;;;;;;;;;;;;;;5.64;92.51;100437.16;3177883;27;19924;-64
2023/03/01 02:38:58;;;;;;;;;;;;;;;5.65;92.47;100430.28;3170890;28;20389;-64
2023/03/01 02:40:30;;;;;;;;;;;;;;;5.65;92.50;100440.63;3170599;28;19934;-63
2023/03/01 02:42:02;;;;;;;;;;;;;;;5.65;92.41;100444.06;3171199;28;19923;-63
2023/03/01 02:43:34;;;;;;;;;;;;;;;5.65;92.55;100438.88;3170846;28;19923;-63
2023/03/01 02:45:07;;;;;;;;;;;;;;;5.64;92.38;100432.00;3158488;28;19928;-63
2023/03/01 02:46:43;;;;;;;;;;;;;;;5.64;92.46;100437.16;3160335;28;19931;-63
2023/03/01 02:48:15;;;;;;;;;;;;;;;5.62;92.45;100431.19;3170409;28;19928;-63
2023/03/01 02:49:47;;;;;;;;;;;;;;;5.65;92.53;100438.03;3170528;28;19928;-63
2023/03/01 02:51:36;;;;;;;;;;;;;;;5.64;92.51;100429.41;3170925;28;20293;-63
2023/03/01 02:53:10;;;;;;;;;;;;;;;5.65;92.57;100427.69;3158330;28;20423;-63
2023/03/01 02:54:46;;;;;;;;;;;;;;;5.65;92.71;100432.88;3168161;28;20412;-63
2023/03/01 02:56:17;;;;;;;;;;;;;;;5.64;92.51;100434.56;3170538;28;20336;-63
2023/03/01 02:57:50;;;;;;;;;;;;;;;5.62;92.50;100426.00;3170798;28;19930;-62
2023/03/01 02:59:22;;;;;;;;;;;;;;;5.61;92.60;100434.63;3170759;28;19946;-64
2023/03/01 03:00:56;;;;;;;;;;;;;;;5.60;92.55;100430.34;3170672;28;19923;-63
2023/03/01 03:02:35;;;;;;;;;;;;;;;5.59;92.56;100433.81;3170115;28;20030;-63
2023/03/01 03:04:07;;;;;;;;;;;;;;;5.58;92.83;100426.06;3170583;28;20320;-64
2023/03/01 03:05:39;;;;;;;;;;;;;;;5.58;92.76;100434.66;3170674;28;19946;-64
2023/03/01 03:07:10;;;;;;;;;;;;;;;5.55;92.76;100432.13;3170468;28;19931;-63
2023/03/01 03:08:41;;;;;;;;;;;;;;;5.54;92.78;100439.91;3170589;28;19923;-64
2023/03/01 03:10:14;;;;;;;;;;;;;;;5.51;92.61;100435.63;3169946;28;19924;-64
2023/03/01 03:11:46;;;;;;;;;;;;;;;5.51;92.88;100435.63;3170676;28;19928;-64
2023/03/01 03:13:16;;;;;;;;;;;;;;;5.51;92.91;100430.47;3170524;28;20064;-64
2023/03/01 03:14:48;;;;;;;;;;;;;;;5.48;93.02;100435.69;3169532;28;20513;-64
2023/03/01 03:16:22;;;;;;;;;;;;;;;5.45;93.07;100431.41;3170289;28;19927;-64
2023/03/01 03:17:53;;;;;;;;;;;;;;;5.43;93.33;100429.72;3164800;28;19944;-64
2023/03/01 03:19:24;;;;;;;;;;;;;;;5.42;93.45;100421.13;3170712;28;20001;-64
2023/03/01 03:20:56;;;;;;;;;;;;;;;5.44;93.27;100423.66;3170419;28;19924;-64
2023/03/01 03:22:28;;;;;;;;;;;;;;;5.45;93.62;100420.22;3168385;28;20382;-64
2023/03/01 03:24:00;;;;;;;;;;;;;;;5.46;93.56;100417.59;3170472;28;20001;-64
2023/03/01 03:25:31;;;;;;;;;;;;;;;5.46;93.54;100421.94;3170180;28;20011;-63
2023/03/01 03:27:02;;;;;;;;;;;;;;;5.44;93.57;100426.25;3170315;28;19923;-64
2023/03/01 03:28:34;;;;;;;;;;;;;;;5.38;93.62;100416.00;3170088;28;19931;-64
2023/03/01 03:30:08;;;;;;;;;;;;;;;5.38;93.97;100419.47;3170317;28;20003;-64
2023/03/01 03:31:41;;;;;;;;;;;;;;;5.36;94.04;100435.84;3170559;28;20404;-63
2023/03/01 03:33:12;;;;;;;;;;;;;;;5.33;94.15;100431.59;3170009;28;19924;-64
2023/03/01 03:34:43;;;;;;;;;;;;;;;5.32;94.02;100437.59;3174311;27;19924;-64
2023/03/01 03:36:17;;;;;;;;;;;;;;;5.35;93.98;100434.97;3170320;28;19927;-64
2023/03/01 03:38:03;;;;;;;;;;;;;;;5.36;94.20;100433.28;3170324;28;19924;-64
2023/03/01 03:39:35;;;;;;;;;;;;;;;5.35;94.25;100434.97;3169828;28;20428;-64
2023/03/01 03:41:07;;;;;;;;;;;;;;;5.36;94.26;100433.28;3170545;28;19989;-64
2023/03/01 03:42:38;;;;;;;;;;;;;;;5.34;94.29;100427.28;3169895;28;20323;-63
2023/03/01 03:44:10;;;;;;;;;;;;;;;5.33;94.47;100426.41;3165297;28;20277;-64
2023/03/01 03:45:40;;;;;;;;;;;;;;;5.35;94.46;100418.63;3166445;28;20001;-64
2023/03/01 03:47:13;;;;;;;;;;;;;;;5.35;94.26;100423.81;3170285;28;20011;-64
2023/03/01 03:48:46;;;;;;;;;;;;;;;5.32;94.42;100424.69;3170413;28;19947;-64
2023/03/01 03:50:18;;;;;;;;;;;;;;;5.32;94.33;100423.84;3170338;28;19924;-64
2023/03/01 03:51:49;;;;;;;;;;;;;;;5.31;94.57;100412.66;3170322;28;20435;-64
2023/03/01 03:53:21;;;;;;;;;;;;;;;5.31;94.61;100407.50;3170481;28;20456;-64
2023/03/01 03:54:52;;;;;;;;;;;;;;;5.33;94.54;100404.91;3169793;28;20006;-64
2023/03/01 03:56:25;;;;;;;;;;;;;;;5.32;94.57;100409.19;3170059;28;20405;-64
2023/03/01 03:57:57;;;;;;;;;;;;;;;5.33;94.65;100416.09;3170266;28;19996;-64
2023/03/01 03:59:29;;;;;;;;;;;;;;;5.33;94.61;100418.66;3170189;28;20014;-64
2023/03/01 04:01:01;;;;;;;;;;;;;;;5.34;94.69;100424.69;3168569;28;19950;-63
2023/03/01 04:02:34;;;;;;;;;;;;;;;5.34;94.89;100427.28;3169879;28;20014;-63
2023/03/01 04:04:07;;;;;;;;;;;;;;;5.34;94.83;100422.09;3157863;28;19947;-63
2023/03/01 04:05:38;;;;;;;;;;;;;;;5.31;94.88;100422.16;3163989;28;19931;-63
2023/03/01 04:07:10;;;;;;;;;;;;;;;5.29;94.79;100414.41;3170258;28;19967;-62
2023/03/01 04:08:42;;;;;;;;;;;;;;;5.29;94.86;100423.88;3169978;28;19972;-64
2023/03/01 04:10:13;;;;;;;;;;;;;;;5.27;95.09;100417.91;3168086;28;20006;-63
2023/03/01 04:11:45;;;;;;;;;;;;;;;5.28;95.03;100407.53;3170126;28;20375;-63
2023/03/01 04:13:19;;;;;;;;;;;;;;;5.27;95.02;100415.31;3169937;28;20297;-63
2023/03/01 04:14:51;;;;;;;;;;;;;;;5.25;95.10;100423.94;3169702;28;19988;-63
2023/03/01 04:16:21;;;;;;;;;;;;;;;5.25;95.02;100423.94;3168878;28;20735;-64
2023/03/01 04:17:55;;;;;;;;;;;;;;;5.25;95.14;100429.09;3167012;28;19988;-64
2023/03/01 04:19:27;;;;;;;;;;;;;;;5.26;95.28;100429.94;3166976;28;20037;-64
2023/03/01 04:20:57;;;;;;;;;;;;;;;5.24;95.09;100429.97;3169666;28;19931;-64
2023/03/01 04:22:29;;;;;;;;;;;;;;;5.24;95.19;100432.56;3169919;28;20307;-63
2023/03/01 04:24:03;;;;;;;;;;;;;;;5.23;95.06;100428.28;3170091;28;20476;-63
2023/03/01 04:25:34;;;;;;;;;;;;;;;5.25;95.25;100421.34;3169998;28;19927;-63
2023/03/01 04:27:05;;;;;;;;;;;;;;;5.25;95.04;100426.50;3159295;28;20443;-63
2023/03/01 04:28:39;;;;;;;;;;;;;;;5.27;95.09;100426.50;3166265;28;19927;-62
2023/03/01 04:30:10;;;;;;;;;;;;;;;5.27;95.16;100425.66;3169834;28;20393;-63
2023/03/01 04:31:42;;;;;;;;;;;;;;;5.24;95.24;100422.22;3171128;28;19966;-63
2023/03/01 04:33:14;;;;;;;;;;;;;;;5.24;95.11;100423.97;3168554;28;19927;-63
2023/03/01 04:34:45;;;;;;;;;;;;;;;5.21;95.27;100426.59;3170045;27;20342;-63
2023/03/01 04:36:18;;;;;;;;;;;;;;;5.19;95.24;100433.50;3185132;27;19980;-63
2023/03/01 04:37:50;;;;;;;;;;;;;;;5.18;95.35;100434.38;3174797;27;19930;-63
2023/03/01 04:39:22;;;;;;;;;;;;;;;5.17;95.43;100438.66;3172146;28;20496;-62
2023/03/01 04:40:53;;;;;;;;;;;;;;;5.18;95.42;100442.97;3172575;28;20404;-62
2023/03/01 04:42:24;;;;;;;;;;;;;;;5.19;95.38;100436.91;3172177;28;19928;-63
2023/03/01 04:43:56;;;;;;;;;;;;;;;5.22;95.44;100436.03;3170612;28;19930;-63
2023/03/01 04:45:27;;;;;;;;;;;;;;;5.21;95.33;100437.78;3168136;28;19924;-61
2023/03/01 04:46:59;;;;;;;;;;;;;;;5.22;95.55;100436.03;3172455;28;19935;-61
2023/03/01 04:48:31;;;;;;;;;;;;;;;5.25;95.55;100438.56;3172122;28;20342;-62
2023/03/01 04:50:03;;;;;;;;;;;;;;;5.24;95.55;100445.47;3172369;28;19923;-61
2023/03/01 04:51:35;;;;;;;;;;;;;;;5.24;95.38;100439.47;3171657;28;19928;-62
2023/03/01 04:53:06;;;;;;;;;;;;;;;5.23;95.28;100438.63;3172609;28;20403;-61
2023/03/01 04:54:38;;;;;;;;;;;;;;;5.24;95.31;100437.72;3171985;28;20345;-60
2023/03/01 04:56:10;;;;;;;;;;;;;;;5.24;95.46;100437.72;3172415;28;19928;-64
2023/03/01 04:57:42;;;;;;;;;;;;;;;5.24;95.41;100439.47;3171922;28;19946;-65
2023/03/01 04:59:13;;;;;;;;;;;;;;;5.22;95.40;100439.47;3172283;28;20461;-63
2023/03/01 05:00:45;;;;;;;;;;;;;;;5.23;95.45;100435.16;3171936;28;21192;-62
2023/03/01 05:02:17;;;;;;;;;;;;;;;5.22;95.43;100434.28;3172198;28;19923;-63
2023/03/01 05:03:51;;;;;;;;;;;;;;;5.21;95.56;100440.34;3171953;28;19981;-60
2023/03/01 05:05:25;;;;;;;;;;;;;;;5.22;95.60;100441.19;3172750;28;20010;-61
2023/03/01 05:06:58;;;;;;;;;;;;;;;5.20;95.46;100428.28;3170414;28;20103;-60
2023/03/01 05:08:30;;;;;;;;;;;;;;;5.19;95.78;100429.19;3171490;28;20068;-60
2023/03/01 05:10:00;;;;;;;;;;;;;;;5.21;95.81;100421.44;3171729;28;20018;-60
2023/03/01 05:11:35;;;;;;;;;;;;;;;5.22;95.79;100429.13;3162869;28;19924;-61
2023/03/01 05:13:07;;;;;;;;;;;;;;;5.21;95.90;100424.84;3171825;28;19963;-61
2023/03/01 05:14:38;;;;;;;;;;;;;;;5.22;95.89;100433.44;3171624;27;20023;-66
2023/03/01 05:16:10;;;;;;;;;;;;;;;5.24;95.98;100424.81;3171534;28;20307;-60
2023/03/01 05:17:41;;;;;;;;;;;;;;;5.24;95.85;100435.16;3165461;28;19924;-64
2023/03/01 05:19:16;;;;;;;;;;;;;;;5.23;95.88;100433.44;3168420;28;20403;-62
2023/03/01 05:20:48;;;;;;;;;;;;;;;5.23;95.71;100435.16;3171869;28;19969;-61
2023/03/01 05:22:19;;;;;;;;;;;;;;;5.23;95.89;100429.97;3161361;28;19967;-61
2023/03/01 05:23:50;;;;;;;;;;;;;;;5.21;95.97;100430.03;3165931;28;19928;-63
2023/03/01 05:25:22;;;;;;;;;;;;;;;5.22;95.83;100433.44;3171888;28;19981;-68
2023/03/01 05:26:52;;;;;;;;;;;;;;;5.21;95.95;100431.75;3171808;28;19935;-65
2023/03/01 05:28:24;;;;;;;;;;;;;;;5.21;96.07;100431.75;3171507;28;19924;-63
2023/03/01 05:29:56;;;;;;;;;;;;;;;5.22;95.95;100434.28;3171578;28;19928;-63
2023/03/01 05:31:27;;;;;;;;;;;;;;;5.24;95.99;100436.88;3171038;27;20035;-64
2023/03/01 05:32:58;;;;;;;;;;;;;;;5.27;96.08;100436.00;3162948;28;20377;-68
2023/03/01 05:34:32;;;;;;;;;;;;;;;5.27;96.07;100436.84;3174609;27;20018;-64
2023/03/01 05:36:04;;;;;;;;;;;;;;;5.29;96.04;100439.38;3177905;27;21016;-64
2023/03/01 05:37:36;;;;;;;;;;;;;;;5.29;96.21;100437.66;3171410;28;20313;-66
2023/03/01 05:39:07;;;;;;;;;;;;;;;5.31;96.07;100441.06;3171686;28;19930;-65
2023/03/01 05:40:39;;;;;;;;;;;;;;;5.35;96.17;100441.88;3171544;28;19981;-64
2023/03/01 05:42:12;;;;;;;;;;;;;;;5.38;96.18;100441.84;3169095;28;20348;-64
2023/03/01 05:43:44;;;;;;;;;;;;;;;5.37;96.17;100440.13;3170776;28;19928;-63
2023/03/01 05:45:16;;;;;;;;;;;;;;;5.36;96.08;100436.72;3171644;28;19924;-64
2023/03/01 05:46:49;;;;;;;;;;;;;;;5.37;96.08;100442.72;3171401;28;19923;-64
2023/03/01 05:48:20;;;;;;;;;;;;;;;5.37;96.04;100447.88;3171411;27;20409;-64
2023/03/01 05:49:52;;;;;;;;;;;;;;;5.36;96.03;100451.34;3171042;28;19923;-64
2023/03/01 05:51:24;;;;;;;;;;;;;;;5.35;96.04;100449.63;3171526;28;20007;-63
2023/03/01 05:52:58;;;;;;;;;;;;;;;5.34;96.15;100453.09;3169875;28;19928;-61
2023/03/01 05:54:30;;;;;;;;;;;;;;;5.38;96.26;100459.91;3169870;28;19935;-61
2023/03/01 05:56:03;;;;;;;;;;;;;;;5.39;96.45;100457.31;3170556;28;19923;-60
2023/03/01 05:57:34;;;;;;;;;;;;;;;5.44;96.58;100460.72;3170816;28;19928;-63
2023/03/01 05:59:06;;;;;;;;;;;;;;;5.50;96.40;100464.06;3170648;28;20351;-63
2023/03/01 06:00:37;;;;;;;;;;;;;;;5.51;96.26;100464.06;3166170;28;19938;-63
2023/03/01 06:02:09;;;;;;;;;;;;;;;5.53;96.23;100467.47;3170528;28;19977;-64
2023/03/01 06:03:40;;;;;;;;;;;;;;;5.52;96.22;100473.50;3170718;28;19928;-63
2023/03/01 06:05:14;;;;;;;;;;;;;;;5.53;96.03;100472.66;3171162;28;20423;-63
2023/03/01 06:06:46;;;;;;;;;;;;;;;5.51;96.12;100471.81;3170129;28;19924;-63
2023/03/01 06:08:20;;;;;;;;;;;;;;;5.50;95.93;100467.50;3169968;28;19924;-62
2023/03/01 06:09:51;;;;;;;;;;;;;;;5.49;95.97;100468.38;3170755;28;19923;-63
2023/03/01 06:11:23;;;;;;;;;;;;;;;5.50;95.79;100470.06;3171201;28;19945;-61
2023/03/01 06:12:55;;;;;;;;;;;;;;;5.52;95.83;100465.75;3170934;28;19977;-63
2023/03/01 06:14:26;;;;;;;;;;;;;;;5.53;95.69;100464.91;3171032;27;19924;-63
2023/03/01 06:15:58;;;;;;;;;;;;;;;5.53;95.75;100469.19;3170971;28;20329;-64
2023/03/01 06:17:30;;;;;;;;;;;;;;;5.53;95.83;100464.03;3166722;28;20450;-63
2023/03/01 06:19:02;;;;;;;;;;;;;;;5.55;95.78;100468.28;3163213;28;19930;-63
2023/03/01 06:20:35;;;;;;;;;;;;;;;5.56;95.79;100464.84;3171053;28;19924;-63
2023/03/01 06:22:05;;;;;;;;;;;;;;;5.55;95.69;100457.13;3170968;28;19927;-64
2023/03/01 06:23:37;;;;;;;;;;;;;;;5.53;95.68;100457.16;3170847;28;19931;-63
2023/03/01 06:25:08;;;;;;;;;;;;;;;5.52;95.86;100467.50;3171162;28;19924;-63
2023/03/01 06:26:39;;;;;;;;;;;;;;;5.52;95.64;100462.31;3170915;28;19924;-62
2023/03/01 06:28:11;;;;;;;;;;;;;;;5.52;95.93;100472.66;3170892;28;19924;-62
2023/03/01 06:29:43;;;;;;;;;;;;;;;5.50;95.61;100471.81;3170314;28;19931;-63
2023/03/01 06:31:14;;;;;;;;;;;;;;;5.48;95.93;100472.69;3171296;28;19924;-63
2023/03/01 06:32:46;;;;;;;;;;;;;;;5.48;95.91;100477.00;3170890;28;19931;-63
2023/03/01 06:34:17;;;;;;;;;;;;;;;5.48;96.00;100466.69;3172403;27;20051;-63
2023/03/01 06:35:50;;;;;;;;;;;;;;;5.48;95.82;100471.84;3179148;27;19923;-63
2023/03/01 06:37:22;;;;;;;;;;;;;;;5.47;96.04;100464.94;3171037;28;19930;-63
2023/03/01 06:38:53;;;;;;;;;;;;;;;5.46;95.98;100463.25;3170689;28;20464;-64
2023/03/01 06:40:25;;;;;;;;;;;;;;;5.47;95.79;100470.13;3170922;28;19934;-64
2023/03/01 06:41:57;;;;;;;;;;;;;;;5.48;96.16;100466.69;3170745;28;19927;-65
2023/03/01 06:43:29;;;;;;;;;;;;;;;5.47;96.07;100465.84;3170785;28;19924;-64
2023/03/01 06:45:00;;;;;;;;;;;;;;;5.47;96.08;100471.00;3169932;28;20319;-64
2023/03/01 06:46:32;;;;;;;;;;;;;;;5.48;95.95;100471.84;3170773;28;19932;-67
2023/03/01 06:48:05;;;;;;;;;;;;;;;5.47;96.10;100470.13;3170682;28;19935;-67
2023/03/01 06:49:36;;;;;;;;;;;;;;;5.48;96.07;100470.13;3170707;28;19971;-61
2023/03/01 06:51:09;;;;;;;;;;;;;;;5.48;96.29;100472.69;3169490;28;20003;-67
2023/03/01 06:52:43;;;;;;;;;;;;;;;5.47;96.32;100473.59;3170069;28;19932;-64
2023/03/01 06:54:15;;;;;;;;;;;;;;;5.48;96.13;100482.19;3170068;28;19928;-64
2023/03/01 06:55:46;;;;;;;;;;;;;;;5.46;96.20;100468.44;3170104;28;20265;-64
2023/03/01 06:57:18;;;;;;;;;;;;;;;5.46;96.40;100473.59;3170311;28;20328;-65
2023/03/01 06:58:50;;;;;;;;;;;;;;;5.47;96.44;100472.72;3169836;28;19924;-62
2023/03/01 07:00:22;;;;;;;;;;;;;;;5.47;96.44;100477.88;3169416;28;20085;-68
2023/03/01 07:01:53;;;;;;;;;;;;;;;5.48;96.26;100477.88;3170078;28;19975;-68
2023/03/01 07:03:25;;;;;;;;;;;;;;;5.51;96.42;100471.81;3170458;28;19932;-68
2023/03/01 07:04:57;;;;;;;;;;;;;;;5.52;96.40;100476.09;3170211;28;20311;-68
2023/03/01 07:06:30;;;;;;;;;;;;;;;5.55;96.44;100475.19;3164212;28;19924;-66
2023/03/01 07:08:01;;;;;;;;;;;;;;;5.59;96.30;100474.25;3169387;28;19935;-68
2023/03/01 07:09:33;;;;;;;;;;;;;;;5.61;96.22;100468.22;3169838;28;20392;-65
2023/03/01 07:11:05;;;;;;;;;;;;;;;5.64;96.10;100468.16;3170121;28;19942;-66
2023/03/01 07:12:37;;;;;;;;;;;;;;;5.68;96.19;100471.59;3169775;28;20007;-65
2023/03/01 07:14:08;;;;;;;;;;;;;;;5.69;95.97;100463.78;3168071;28;19930;-67
2023/03/01 07:15:41;;;;;;;;;;;;;;;5.70;95.86;100469.81;3159421;28;19932;-63
2023/03/01 07:17:12;;;;;;;;;;;;;;;5.71;96.17;100479.28;3163350;28;19928;-62
2023/03/01 07:18:45;;;;;;;;;;;;;;;5.73;96.39;100477.50;3169795;28;19923;-62
2023/03/01 07:20:17;;;;;;;;;;;;;;;5.77;96.32;100473.16;3170288;28;19935;-62
2023/03/01 07:21:50;;;;;;;;;;;;;;;5.79;96.33;100476.56;3169677;28;20408;-64
2023/03/01 07:23:22;;;;;;;;;;;;;;;5.80;96.40;100473.13;3161132;28;19924;-63
2023/03/01 07:24:53;;;;;;;;;;;;;;;5.82;96.58;100472.22;3162702;28;19935;-65
2023/03/01 07:26:25;;;;;;;;;;;;;;;5.87;96.51;100473.00;3169024;28;19928;-64
2023/03/01 07:27:57;;;;;;;;;;;;;;;5.90;96.31;100464.34;3169140;28;19924;-64
2023/03/01 07:29:29;;;;;;;;;;;;;;;5.94;96.05;100471.19;3169602;28;19927;-64
2023/03/01 07:31:02;;;;;;;;;;;;;;;5.99;95.89;100472.00;3169062;28;20006;-63
2023/03/01 07:32:33;;;;;;;;;;;;;;;6.01;95.86;100466.81;3169168;28;20019;-63
2023/03/01 07:34:05;;;;;;;;;;;;;;;6.01;95.70;100461.63;3169482;28;19932;-64
2023/03/01 07:35:36;;;;;;;;;;;;;;;6.02;95.80;100465.91;3171794;27;19924;-63
2023/03/01 07:37:09;;;;;;;;;;;;;;;6.02;95.70;100473.69;3175415;27;19977;-65
2023/03/01 07:38:41;;;;;;;;;;;;;;;6.03;95.47;100462.44;3169925;28;19940;-64
2023/03/01 07:40:13;;;;;;;;;;;;;;;6.03;95.42;100459.88;3169766;28;19935;-64
2023/03/01 07:41:44;;;;;;;;;;;;;;;6.00;95.40;100453.00;3169984;28;19924;-69
2023/03/01 07:43:16;;;;;;;;;;;;;;;6.07;95.19;100458.94;3169624;28;20253;-64
2023/03/01 07:44:48;;;;;;;;;;;;;;;6.07;95.04;100464.13;3160732;28;20068;-64
2023/03/01 07:46:19;;;;;;;;;;;;;;;6.06;95.25;100458.09;3169610;28;20536;-64
2023/03/01 07:47:51;;;;;;;;;;;;;;;6.07;95.05;100451.19;3168755;28;19992;-64
2023/03/01 07:49:23;;;;;;;;;;;;;;;6.10;95.11;100453.72;3168977;28;19924;-64
2023/03/01 07:50:55;;;;;;;;;;;;;;;6.10;94.81;100453.72;3164177;28;20034;-62
2023/03/01 07:52:28;;;;;;;;;;;;;;;6.09;94.95;100457.19;3169236;28;19924;-63
2023/03/01 07:53:59;;;;;;;;;;;;;;;6.08;94.64;100458.91;3166336;28;19927;-66
2023/03/01 07:55:31;;;;;;;;;;;;;;;6.09;94.55;100463.22;3169821;28;19976;-63
2023/03/01 07:57:03;;;;;;;;;;;;;;;6.09;94.55;100454.59;3161431;28;19923;-64
2023/03/01 07:58:35;;;;;;;;;;;;;;;6.09;94.52;100454.59;3169857;28;19977;-64
2023/03/01 08:00:07;;;;;;;;;;;;;;;6.11;94.65;100456.28;3169781;28;19935;-63
2023/03/01 08:01:38;;;;;;;;;;;;;;;6.12;94.37;100454.53;3169804;28;19931;-63